Latest Coastal Weather Observations for Smithton

IDT60701

Issued at 12:02 am EST Monday 20 April 2015 (issued every 10 minutes, with the page automatically refreshed every 10 minutes)

About coastal observations | Map of coastal stations | Coastal observations for TAS | Marine services | Other Formats
Station Details ID: 091292 Name: SMITHTON AERODROME Lat: -40.83 Lon: 145.08 Height: 7.5 m
Data from the previous 72 hours. | See also: Recent months at Smithton
Date/Time
EST
Temp

°C
Wind Pressure Rain
since 9am
mm
Weather Cloud Vis
km
Sea
Height
m
Swell
Dir
 
Speed
knots
Gust
knots
hPa Trend Height
m
Period
s
Dir
20/12:00am 0.8 S 6 7 1035.9 - 0.0 - - - - - - -
 
Date/Time
EST
Temp

°C
Wind Pressure Rain
since 9am
mm
Weather Cloud Vis
km
Sea
Height
m
Swell
Dir
 
Speed
knots
Gust
knots
hPa Trend Height
m
Period
s
Dir
19/11:30pm 1.3 S 7 8 1035.8 - 0.0 - - - - - - -
19/11:00pm 0.7 S 6 6 1035.9 - 0.0 - - - - - - -
19/10:30pm 0.8 S 7 8 1035.9 - 0.0 - - - - - - -
19/10:00pm 0.6 S 4 7 1035.7 - 0.0 - - - - - - -
19/09:30pm 1.7 S 4 5 1035.6 - 0.0 - - - - - - -
19/09:00pm 2.4 S 5 6 1035.3 - 0.0 - - - - - - -
19/08:30pm 2.5 CALM 0 0 1034.9 - 0.0 - - - - - - -
19/08:00pm 3.1 S 3 5 1034.5 - 0.0 - - - - - - -
19/07:30pm 3.9 CALM 0 0 1034.0 - 0.0 - - - - - - -
19/07:00pm 4.8 CALM 0 0 1033.5 - 0.0 - - - - - - -
19/06:30pm 6.9 S 3 3 1032.9 - 0.0 - - - - - - -
19/06:00pm 7.9 S 6 8 1032.4 - 0.0 - - - - - - -
19/05:30pm 9.6 S 10 15 1031.9 - 0.0 - - - - - - -
19/05:00pm 10.7 SW 14 19 1031.3 - 0.0 - - - - - - -
19/04:30pm 11.7 SSW 14 19 1030.7 - 0.0 - - - - - - -
19/04:00pm 12.2 SSW 17 21 1030.3 - 0.0 - - - - - - -
19/03:30pm 12.5 SSW 16 20 1030.3 - 0.0 - - - - - - -
19/03:00pm 12.1 SSW 21 25 1030.0 - 0.0 - - - - - - -
19/02:30pm 12.9 SW 20 26 1029.5 - 0.0 - - - - - - -
19/02:00pm 11.7 SSW 17 23 1029.5 - 0.0 - - - - - - -
19/01:44pm 12.6 SSW 20 27 1029.1 - 0.0 - - - - - - -
19/01:30pm 13.5 S 16 22 1028.9 - 0.0 - - - - - - -
19/01:00pm 12.4 SW 15 19 1028.6 - 0.0 - - - - - - -
19/12:30pm 11.8 S 12 16 1028.7 - 0.0 - - - - - - -
19/12:00pm 12.1 S 15 19 1028.4 - 0.0 - - - - - - -
19/11:30am 12.3 S 15 20 1027.9 - 0.0 - - - - - - -
19/11:03am 12.4 SSW 15 26 1027.6 - 0.0 - - - - - - -
19/11:00am 12.2 SSW 14 19 1027.5 - 0.0 - - - - - - -
19/10:30am 11.2 SSW 15 21 1027.2 - 0.0 - - - - - - -
19/10:00am 10.6 S 12 17 1026.8 - 0.0 - - - - - - -
19/09:30am 10.7 SSW 8 11 1026.3 - 0.0 - - - - - - -
19/09:00am 9.6 SSW 6 9 1026.1 - 2.2 - - - - - - -
19/08:30am 8.9 SSW 8 10 1025.5 - 2.2 - - - - - - -
19/08:00am 7.3 SSW 6 8 1024.6 - 2.2 - - - - - - -
19/07:30am 6.4 SSW 8 11 1023.7 - 2.2 - - - - - - -
19/07:00am 4.5 SSW 7 8 1022.9 - 2.2 - - - - - - -
19/06:30am 5.8 SSW 10 12 1021.9 - 2.2 - - - - - - -
19/06:00am 7.1 SSW 12 16 1021.1 - 2.2 - - - - - - -
19/05:30am 6.8 SSW 11 13 1020.2 - 2.2 - - - - - - -
19/05:00am 7.4 SW 13 16 1019.6 - 2.2 - - - - - - -
19/04:30am 7.7 SSW 13 18 1018.8 - 2.2 - - - - - - -
19/04:00am 8.6 SSW 18 24 1018.1 - 2.2 - - - - - - -
19/03:35am 8.5 SW 22 29 1017.5 - 2.2 - - - - - - -
19/03:30am 7.7 SW 11 14 1017.5 - 2.2 - - - - - - -
19/03:00am 8.2 SW 13 17 1016.9 - 2.2 - - - - - - -
19/02:30am 8.7 SW 16 22 1016.5 - 2.2 - - - - - - -
19/02:00am 8.5 SW 14 18 1016.2 - 2.2 - - - - - - -
19/01:30am 7.7 SW 10 12 1015.8 - 2.2 - - - - - - -
19/01:00am 7.5 SW 8 10 1015.5 - 2.2 - - - - - - -
19/12:30am 8.3 SW 10 12 1015.0 - 2.2 - - - - - - -
19/12:00am 8.0 WSW 8 9 1014.5 - 2.2 - - - - - - -
 
Date/Time
EST
Temp

°C
Wind Pressure Rain
since 9am
mm
Weather Cloud Vis
km
Sea
Height
m
Swell
Dir
 
Speed
knots
Gust
knots
hPa Trend Height
m
Period
s
Dir
18/11:30pm 9.2 SSW 16 22 1014.1 - 2.2 - - - - - - -
18/11:18pm 9.4 SW 15 22 1014.0 - 2.2 - - - - - - -
18/11:00pm 7.8 WSW 9 11 1013.6 - 2.2 - - - - - - -
18/10:30pm 6.4 W 7 7 1013.4 - 2.0 - - - - - - -
18/10:00pm 8.5 W 7 9 1013.1 - 2.0 - - - - - - -
18/09:30pm 9.0 W 9 12 1012.8 - 2.0 - - - - - - -
18/09:00pm 8.6 WSW 9 11 1012.3 - 2.0 - - - - - - -
18/08:30pm 9.4 WSW 8 9 1011.8 - 2.0 - - - - - - -
18/08:00pm 9.7 W 8 11 1011.2 - 2.0 - - - - - - -
18/07:30pm 9.4 W 7 8 1010.8 - 2.0 - - - - - - -
18/07:00pm 9.8 W 9 11 1010.5 - 2.0 - - - - - - -
18/06:30pm 9.9 W 11 15 1010.2 - 2.0 - - - - - - -
18/06:00pm 10.0 W 11 13 1009.6 - 2.0 - - - - - - -
18/05:30pm 10.1 WSW 11 14 1009.1 - 2.0 - - - - - - -
18/05:00pm 10.3 WSW 11 15 1008.6 - 2.0 - - - - - - -
18/04:30pm 10.9 SW 12 16 1008.7 - 1.8 - - - - - - -
18/04:00pm 11.1 WSW 14 21 1008.4 - 1.4 - - - - - - -
18/03:57pm 11.1 WSW 15 25 1008.4 - 1.2 - - - - - - -
18/03:30pm 11.2 WSW 16 21 1008.2 - 0.8 - - - - - - -
18/03:00pm 11.8 SW 20 26 1007.7 - 0.8 - - - - - - -
18/02:58pm 11.8 SW 20 26 1007.6 - 0.8 - - - - - - -
18/02:30pm 13.3 W 18 24 1006.7 - 0.6 - - - - - - -
18/02:20pm 14.0 W 21 29 1006.3 - 0.2 - - - - - - -
18/02:01pm 15.0 NW 16 26 1006.3 - 0.0 - - - - - - -
18/02:00pm 14.9 NW 17 26 1006.4 - 0.0 - - - - - - -
18/01:30pm 15.1 NW 18 25 1007.1 - 0.0 - - - - - - -
18/01:00pm 16.3 NW 20 29 1007.5 - 0.0 - - - - - - -
18/12:57pm 16.3 NW 19 29 1007.5 - 0.0 - - - - - - -
18/12:30pm 17.2 NW 20 29 1007.9 - 0.0 - - - - - - -
18/12:00pm 17.2 NW 20 25 1008.4 - 0.0 - - - - - - -
18/11:30am 18.6 NW 16 25 1008.6 - 0.0 - - - - - - -
18/11:00am 17.8 NW 19 26 1008.5 - 0.0 - - - - - - -
18/10:30am 16.8 WNW 19 25 1009.1 - 0.0 - - - - - - -
18/10:00am 17.2 NW 17 23 1009.3 - 0.0 - - - - - - -
18/09:30am 16.5 NW 16 21 1009.6 - 0.0 - - - - - - -
18/09:00am 15.9 NW 11 14 1009.8 - 0.0 - - - - - - -
18/08:30am 13.8 WNW 4 6 1010.1 - 0.0 - - - - - - -
18/08:00am 11.4 WNW 3 4 1010.4 - 0.0 - - - - - - -
18/07:30am 10.2 WNW 3 4 1010.1 - 0.0 - - - - - - -
18/07:00am 9.4 WNW 3 4 1009.7 - 0.0 - - - - - - -
18/06:30am 9.9 WNW 3 4 1009.7 - 0.0 - - - - - - -
18/06:00am 10.0 W 6 7 1009.6 - 0.0 - - - - - - -
18/05:30am 10.1 NNW 6 7 1009.7 - 0.0 - - - - - - -
18/05:00am 9.8 CALM 0 4 1009.5 - 0.0 - - - - - - -
18/04:30am 11.7 N 1 3 1009.3 - 0.0 - - - - - - -
18/04:00am 11.9 CALM 0 0 1009.1 - 0.0 - - - - - - -
18/03:30am 12.0 CALM 0 0 1009.8 - 0.0 - - - - - - -
18/03:00am 12.4 N 3 5 1010.1 - 0.0 - - - - - - -
18/02:30am 13.2 N 6 8 1010.5 - 0.0 - - - - - - -
18/02:00am 13.2 N 6 7 1011.2 - 0.0 - - - - - - -
18/01:30am 13.1 N 7 9 1011.7 - 0.0 - - - - - - -
18/01:00am 12.4 N 3 6 1011.7 - 0.0 - - - - - - -
18/12:30am 11.3 CALM 0 2 1012.6 - 0.0 - - - - - - -
18/12:00am 12.4 N 6 8 1013.0 - 0.0 - - - - - - -
 
Date/Time
EST
Temp

°C
Wind Pressure Rain
since 9am
mm
Weather Cloud Vis
km
Sea
Height
m
Swell
Dir
 
Speed
knots
Gust
knots
hPa Trend Height
m
Period
s
Dir
17/11:30pm 11.5 CALM 0 0 1013.3 - 0.0 - - - - - - -
17/11:00pm 11.3 N 4 5 1013.8 - 0.0 - - - - - - -
17/10:30pm 12.0 N 2 4 1014.3 - 0.0 - - - - - - -
17/10:00pm 12.6 N 4 5 1014.7 - 0.0 - - - - - - -
17/09:30pm 13.3 N 5 7 1015.0 - 0.0 - - - - - - -
17/09:00pm 12.8 NNW 5 6 1015.4 - 0.0 - - - - - - -
17/08:30pm 12.8 NNW 6 7 1015.6 - 0.0 - - - - - - -
17/08:00pm 12.4 NNW 4 5 1015.8 - 0.0 - - - - - - -
17/07:30pm 12.6 NNW 3 4 1016.2 - 0.0 - - - - - - -
17/07:00pm 12.7 NNW 6 7 1017.0 - 0.0 - - - - - - -
17/06:30pm 13.1 NNW 5 6 1016.5 - 0.0 - - - - - - -
17/06:00pm 13.7 NNW 7 8 1016.7 - 0.0 - - - - - - -
17/05:30pm 14.2 N 7 10 1016.7 - 0.0 - - - - - - -
17/05:00pm 14.5 N 7 9 1016.7 - 0.0 - - - - - - -
17/04:30pm 14.8 N 10 14 1016.9 - 0.0 - - - - - - -
17/04:00pm 15.3 N 8 11 1017.2 - 0.0 - - - - - - -
17/03:30pm 16.4 NNW 9 12 1017.3 - 0.0 - - - - - - -
17/03:00pm 15.8 NW 7 11 1017.5 - 0.0 - - - - - - -
17/02:30pm 15.9 NNW 9 12 1018.0 - 0.0 - - - - - - -
17/02:00pm 16.3 NNW 10 13 1018.6 - 0.0 - - - - - - -
17/01:30pm 16.3 NNW 9 13 1019.0 - 0.0 - - - - - - -
17/01:00pm 16.7 NNW 11 13 1019.6 - 0.0 - - - - - - -
17/12:30pm 17.5 NW 10 14 1020.0 - 0.0 - - - - - - -
17/12:00pm 17.2 N 10 13 1020.6 - 0.0 - - - - - - -
17/11:30am 16.8 NW 8 11 1021.2 - 0.0 - - - - - - -
17/11:00am 16.6 NW 10 12 1021.7 - 0.0 - - - - - - -
17/10:30am 16.2 WNW 8 11 1022.2 - 0.0 - - - - - - -
17/10:00am 15.8 WNW 8 13 1022.6 - 0.0 - - - - - - -
17/09:30am 14.5 NW 6 9 1022.8 - 0.0 - - - - - - -
17/09:00am 12.1 WNW 5 7 1023.2 - 0.2 - - - - - - -
17/08:30am 10.8 W 3 4 1023.1 - 0.2 - - - - - - -
17/08:00am 8.3 CALM 0 0 1023.2 - 0.2 - - - - - - -
17/07:30am 6.1 CALM 0 0 1022.9 - 0.2 - - - - - - -
17/07:00am 6.2 W 4 4 1022.8 - 0.2 - - - - - - -
17/06:30am 5.6 CALM 0 0 1022.7 - 0.0 - - - - - - -
17/06:00am 6.8 W 3 4 1022.6 - 0.0 - - - - - - -
17/05:30am 7.9 CALM 0 0 1022.1 - 0.0 - - - - - - -
17/05:00am 8.0 CALM 0 0 1022.1 - 0.0 - - - - - - -
17/04:30am 9.3 W 1 3 1022.1 - 0.0 - - - - - - -
17/04:00am 10.3 W 4 5 1022.3 - 0.0 - - - - - - -
17/03:30am 10.9 W 4 5 1022.3 - 0.0 - - - - - - -
17/03:00am 11.3 WNW 5 6 1022.6 - 0.0 - - - - - - -
17/02:30am 11.5 WNW 6 6 1023.0 - 0.0 - - - - - - -
17/02:00am 11.3 W 5 6 1023.2 - 0.0 - - - - - - -
17/01:30am 11.1 WNW 5 6 1023.4 - 0.0 - - - - - - -
17/01:00am 11.0 WNW 5 7 1023.4 - 0.0 - - - - - - -
17/12:30am 10.6 WNW 4 5 1023.7 - 0.0 - - - - - - -

Other Formats:

Comma delimited format used in spreadsheet applications
http://www.bom.gov.au/fwo/IDT60701/IDT60701.94953.axf

JavaScript Object Notation format (JSON) in row-major order
http://www.bom.gov.au/fwo/IDT60701/IDT60701.94953.json